createdAt,value
2022-10-06T00:00:39.095Z,74.28
2022-10-06T00:03:05.862Z,74.15
2022-10-06T00:05:32.838Z,74.34
2022-10-06T00:08:00.589Z,74.78
2022-10-06T00:10:27.974Z,74.76
2022-10-06T00:12:54.943Z,74.91
2022-10-06T00:15:24.931Z,74.71
2022-10-06T00:17:52.168Z,74.93
2022-10-06T00:20:19.431Z,74.86
2022-10-06T00:22:48.650Z,75.23
2022-10-06T00:25:18.290Z,75.35
2022-10-06T00:27:48.220Z,75.40
2022-10-06T00:30:19.701Z,75.59
2022-10-06T00:32:57.202Z,75.69
2022-10-06T00:35:26.427Z,75.97
2022-10-06T00:37:53.323Z,76.69
2022-10-06T00:40:20.819Z,76.98
2022-10-06T00:42:49.750Z,77.33
2022-10-06T00:45:18.454Z,77.63
2022-10-06T00:47:45.667Z,77.82
2022-10-06T00:50:13.345Z,77.88
2022-10-06T00:52:41.748Z,77.99
2022-10-06T00:55:11.761Z,78.00
2022-10-06T00:57:40.305Z,77.72
2022-10-06T01:00:08.945Z,77.35
2022-10-06T01:02:59.316Z,77.08
2022-10-06T01:05:35.205Z,77.57
2022-10-06T01:08:02.180Z,78.31
2022-10-06T01:10:28.855Z,78.45
2022-10-06T01:12:57.251Z,78.48
2022-10-06T01:15:25.579Z,79.01
2022-10-06T01:17:57.865Z,79.10
2022-10-06T01:20:24.743Z,79.35
2022-10-06T01:23:06.835Z,79.70
2022-10-06T01:25:34.922Z,79.67
2022-10-06T01:28:04.241Z,79.62
2022-10-06T01:30:51.099Z,79.87
2022-10-06T01:33:20.326Z,79.90
2022-10-06T01:35:51.122Z,80.07
2022-10-06T01:38:18.604Z,80.33
2022-10-06T01:40:48.174Z,80.12
2022-10-06T01:43:15.320Z,79.93
2022-10-06T01:45:43.097Z,79.43
2022-10-06T01:48:09.870Z,79.18
2022-10-06T01:50:36.651Z,79.37
2022-10-06T01:53:03.598Z,79.30
2022-10-06T01:55:30.654Z,79.32
2022-10-06T01:57:59.109Z,79.64
2022-10-06T02:00:25.861Z,79.83
2022-10-06T02:02:52.503Z,79.79
2022-10-06T02:05:19.547Z,79.47
2022-10-06T02:07:49.876Z,79.79
2022-10-06T02:10:16.772Z,79.78
2022-10-06T02:12:50.435Z,79.72
2022-10-06T02:15:20.595Z,79.85
2022-10-06T02:17:48.442Z,79.72
2022-10-06T02:20:15.441Z,79.84
2022-10-06T02:22:43.829Z,79.91
2022-10-06T02:25:12.180Z,79.69
2022-10-06T02:27:39.426Z,79.58
2022-10-06T02:30:08.504Z,79.78
2022-10-06T02:32:37.365Z,79.62
2022-10-06T02:35:06.701Z,79.84
2022-10-06T02:37:34.363Z,79.88
2022-10-06T02:40:02.561Z,79.91
2022-10-06T02:42:30.845Z,80.01
2022-10-06T02:44:59.056Z,80.04
2022-10-06T02:47:25.935Z,80.49
2022-10-06T02:49:53.751Z,80.69
2022-10-06T02:52:20.407Z,80.78
2022-10-06T02:54:48.194Z,80.77
2022-10-06T02:57:15.595Z,80.76
2022-10-06T02:59:43.048Z,81.04
2022-10-06T03:02:10.168Z,81.21
2022-10-06T03:04:36.959Z,80.91
2022-10-06T03:07:03.666Z,80.94
2022-10-06T03:09:35.502Z,80.45
2022-10-06T03:12:02.158Z,80.20
2022-10-06T03:14:36.807Z,80.43
2022-10-06T03:17:04.646Z,80.84
2022-10-06T03:19:31.659Z,80.59
2022-10-06T03:21:59.135Z,80.65
2022-10-06T03:24:35.148Z,80.81
2022-10-06T03:27:02.135Z,81.01
2022-10-06T03:29:31.130Z,80.99
2022-10-06T03:31:58.908Z,81.09
2022-10-06T03:34:26.396Z,81.38
2022-10-06T03:36:55.000Z,81.33
2022-10-06T03:39:24.111Z,80.97
2022-10-06T03:41:50.933Z,80.64
2022-10-06T03:44:18.139Z,80.93
2022-10-06T03:46:45.099Z,80.70
2022-10-06T03:49:12.084Z,80.81
2022-10-06T03:51:42.038Z,80.64
2022-10-06T03:54:16.498Z,81.04
2022-10-06T03:56:45.746Z,81.07
2022-10-06T03:59:16.426Z,81.09
2022-10-06T04:01:47.525Z,80.88
2022-10-06T04:04:25.125Z,81.13
2022-10-06T04:06:57.446Z,81.41
2022-10-06T04:09:24.090Z,80.91
2022-10-06T04:11:52.642Z,80.74
2022-10-06T04:14:20.421Z,80.84
2022-10-06T04:16:49.545Z,80.79
2022-10-06T04:19:24.931Z,80.59
2022-10-06T04:21:54.107Z,80.65
2022-10-06T04:24:23.643Z,80.18
2022-10-06T04:26:52.442Z,80.13
2022-10-06T04:29:20.645Z,80.60
2022-10-06T04:31:52.335Z,81.36
2022-10-06T04:34:31.275Z,82.02
2022-10-06T04:36:58.486Z,82.10
2022-10-06T04:39:25.855Z,82.04
2022-10-06T04:41:52.944Z,81.29
2022-10-06T04:44:24.234Z,81.12
2022-10-06T04:46:52.835Z,81.32
2022-10-06T04:49:20.870Z,81.52
2022-10-06T04:51:51.006Z,81.52
2022-10-06T04:54:19.347Z,81.78
2022-10-06T04:56:48.583Z,81.87
2022-10-06T04:59:17.514Z,81.53
2022-10-06T05:01:45.619Z,80.89
2022-10-06T05:04:13.980Z,81.05
2022-10-06T05:06:42.812Z,80.67
2022-10-06T05:09:16.094Z,80.91
2022-10-06T05:11:53.045Z,80.64
2022-10-06T05:14:21.440Z,80.30
2022-10-06T05:16:49.578Z,80.17
2022-10-06T05:19:16.826Z,80.28
2022-10-06T05:21:43.588Z,78.37
2022-10-06T05:24:15.496Z,76.71
2022-10-06T05:26:43.064Z,75.31
2022-10-06T05:29:15.339Z,75.95
2022-10-06T05:31:44.052Z,76.02
2022-10-06T05:34:11.642Z,75.72
2022-10-06T05:36:39.047Z,75.73
2022-10-06T05:39:06.945Z,76.48
2022-10-06T05:41:44.790Z,76.71
2022-10-06T05:44:13.525Z,76.82
2022-10-06T05:46:41.643Z,76.98
2022-10-06T05:49:12.977Z,77.10
2022-10-06T05:51:59.895Z,77.29
2022-10-06T05:54:29.540Z,77.21
2022-10-06T05:56:56.229Z,77.31
2022-10-06T05:59:23.146Z,76.95
2022-10-06T06:01:52.144Z,76.49
2022-10-06T06:04:30.553Z,75.87
2022-10-06T06:06:57.501Z,76.32
2022-10-06T06:09:26.401Z,75.82
2022-10-06T06:11:55.177Z,73.70
2022-10-06T06:14:48.486Z,68.46
2022-10-06T06:17:19.830Z,61.93
2022-10-06T06:19:46.996Z,58.19
2022-10-06T06:22:15.403Z,56.65
2022-10-06T06:24:44.115Z,54.37
2022-10-06T06:27:11.360Z,55.91
2022-10-06T06:29:40.118Z,58.08
2022-10-06T06:32:09.611Z,54.95
2022-10-06T06:34:36.813Z,54.24
2022-10-06T06:37:07.662Z,51.96
2022-10-06T06:39:37.017Z,49.72
2022-10-06T06:42:05.189Z,48.71
2022-10-06T06:44:38.686Z,49.43
2022-10-06T06:47:12.791Z,47.45
2022-10-06T06:49:39.447Z,44.51
2022-10-06T06:52:08.199Z,44.41
2022-10-06T06:54:40.517Z,42.42
2022-10-06T06:57:11.768Z,41.35
2022-10-06T06:59:39.000Z,41.96
2022-10-06T07:02:10.270Z,41.78
2022-10-06T07:04:39.306Z,41.37
2022-10-06T07:07:11.572Z,39.74
2022-10-06T07:09:38.508Z,39.34
2022-10-06T07:12:11.477Z,39.92
2022-10-06T07:15:01.613Z,41.62
2022-10-06T07:17:48.730Z,41.30
2022-10-06T07:20:34.687Z,41.41
2022-10-06T07:23:20.041Z,41.43
2022-10-06T07:25:46.875Z,40.66
2022-10-06T07:28:17.140Z,41.09
2022-10-06T07:30:44.896Z,41.13
2022-10-06T07:33:15.465Z,40.94
2022-10-06T07:35:43.809Z,40.92
2022-10-06T07:38:11.288Z,43.33
2022-10-06T07:43:49.327Z,43.85
2022-10-06T07:46:19.233Z,41.47
2022-10-06T07:49:04.878Z,41.33
2022-10-06T07:51:31.823Z,41.33
2022-10-06T07:53:59.630Z,42.11
2022-10-06T07:56:46.551Z,41.86
2022-10-06T07:59:13.180Z,42.23
2022-10-06T08:01:40.529Z,43.57
2022-10-06T08:04:07.202Z,46.91
2022-10-06T08:06:34.341Z,47.16
2022-10-06T08:09:01.073Z,47.20
2022-10-06T08:11:27.871Z,46.00
2022-10-06T08:13:54.607Z,48.88
2022-10-06T08:16:23.764Z,46.82
2022-10-06T08:18:55.647Z,44.64
2022-10-06T08:21:28.218Z,44.45
2022-10-06T08:23:56.624Z,45.55
2022-10-06T08:26:25.204Z,42.14
2022-10-06T08:28:54.442Z,42.85
2022-10-06T08:31:22.986Z,41.65
2022-10-06T08:33:55.064Z,42.91
2022-10-06T08:36:27.115Z,42.69
2022-10-06T08:38:57.500Z,44.15
2022-10-06T08:41:29.124Z,43.74
2022-10-06T08:44:19.298Z,42.45
2022-10-06T08:46:55.417Z,42.08
2022-10-06T08:49:25.516Z,41.51
2022-10-06T08:52:16.843Z,43.05
2022-10-06T08:55:09.606Z,43.41
2022-10-06T08:57:39.113Z,43.25
2022-10-06T09:00:21.262Z,44.36
2022-10-06T09:02:50.363Z,47.49
2022-10-06T09:05:26.419Z,49.04
2022-10-06T09:08:16.191Z,47.94
2022-10-06T09:10:57.682Z,47.66
2022-10-06T09:13:42.112Z,46.67
2022-10-06T09:16:15.295Z,49.26
2022-10-06T09:19:14.706Z,47.81
2022-10-06T09:21:49.666Z,45.44
2022-10-06T09:24:19.337Z,46.89
2022-10-06T09:26:49.703Z,46.16
2022-10-06T09:29:16.902Z,45.57
2022-10-06T09:31:50.529Z,44.88
2022-10-06T09:34:23.483Z,44.54
2022-10-06T09:37:07.529Z,45.22
2022-10-06T09:39:37.133Z,44.73
2022-10-06T09:42:22.123Z,44.62
2022-10-06T09:44:53.977Z,45.49
2022-10-06T09:47:33.052Z,45.23
2022-10-06T09:50:17.525Z,45.90
2022-10-06T09:53:03.632Z,46.32
2022-10-06T09:55:33.926Z,45.92
2022-10-06T09:58:01.541Z,46.81
2022-10-06T10:00:30.877Z,45.55
2022-10-06T10:03:01.219Z,45.16
2022-10-06T10:05:30.316Z,46.34
2022-10-06T10:08:16.459Z,46.23
2022-10-06T10:10:43.264Z,45.92
2022-10-06T10:13:18.970Z,46.42
2022-10-06T10:16:00.982Z,45.30
2022-10-06T10:18:31.782Z,44.80
2022-10-06T10:21:07.103Z,45.00
2022-10-06T10:23:42.692Z,46.02
2022-10-06T10:26:09.441Z,43.41
2022-10-06T10:29:01.053Z,43.91
2022-10-06T10:31:48.226Z,43.99
2022-10-06T10:34:48.702Z,44.49
2022-10-06T10:37:36.906Z,43.06
2022-10-06T10:40:11.796Z,44.70
2022-10-06T10:42:41.471Z,43.72
2022-10-06T10:45:17.976Z,44.16
2022-10-06T10:47:45.800Z,43.84
2022-10-06T10:50:26.973Z,43.79
2022-10-06T10:52:58.174Z,44.62
2022-10-06T10:55:29.855Z,45.47
2022-10-06T10:58:04.432Z,43.61
2022-10-06T11:00:37.170Z,44.44
2022-10-06T11:03:04.022Z,44.84
2022-10-06T11:05:53.994Z,44.24
2022-10-06T11:08:55.663Z,44.52
2022-10-06T11:11:42.605Z,43.76
2022-10-06T11:14:44.518Z,44.17
2022-10-06T11:17:31.549Z,44.27
2022-10-06T11:20:10.260Z,44.70
2022-10-06T11:22:47.639Z,45.39
2022-10-06T11:25:42.038Z,45.79
2022-10-06T11:28:23.127Z,45.65
2022-10-06T11:31:08.029Z,45.47
2022-10-06T11:33:40.978Z,44.65
2022-10-06T11:36:14.501Z,45.28
2022-10-06T11:38:58.641Z,44.62
2022-10-06T11:42:11.641Z,45.57
2022-10-06T11:44:43.544Z,44.06
2022-10-06T11:47:16.392Z,44.68
2022-10-06T11:49:52.158Z,44.86
2022-10-06T11:52:19.480Z,43.77
2022-10-06T11:54:54.038Z,44.70
2022-10-06T11:57:27.964Z,43.29
2022-10-06T12:00:17.407Z,42.80
2022-10-06T12:02:46.324Z,43.46
2022-10-06T12:05:45.918Z,43.73
2022-10-06T12:08:00.769Z,43.68
2022-10-06T12:10:36.424Z,42.77
2022-10-06T12:14:30.693Z,44.71
2022-10-06T12:19:24.828Z,45.34
2022-10-06T12:22:08.414Z,44.57
2022-10-06T12:25:07.667Z,44.60
2022-10-06T12:27:49.404Z,45.15
2022-10-06T12:30:23.458Z,45.97
2022-10-06T12:32:52.316Z,45.19
2022-10-06T12:35:24.867Z,45.19
2022-10-06T12:37:58.455Z,43.64
2022-10-06T12:40:51.892Z,44.16
2022-10-06T12:43:18.575Z,44.65
2022-10-06T12:46:08.056Z,43.88
2022-10-06T12:48:53.358Z,44.67
2022-10-06T12:51:42.820Z,42.93
2022-10-06T12:54:22.079Z,42.78
2022-10-06T12:57:03.052Z,42.09
2022-10-06T12:59:32.223Z,42.51
2022-10-06T13:02:01.662Z,42.56
2022-10-06T13:04:56.408Z,41.63
2022-10-06T13:07:31.689Z,41.08
2022-10-06T13:10:13.794Z,41.42
2022-10-06T13:12:41.459Z,41.07
2022-10-06T13:15:25.214Z,41.44
2022-10-06T13:17:55.031Z,41.56
2022-10-06T13:20:38.257Z,41.53
2022-10-06T13:23:18.548Z,40.92
2022-10-06T13:25:48.610Z,40.84
2022-10-06T13:28:44.390Z,41.14
2022-10-06T13:31:31.518Z,41.16
2022-10-06T13:34:12.455Z,41.28
2022-10-06T13:36:41.886Z,42.01
2022-10-06T13:39:16.940Z,40.81
2022-10-06T13:41:47.456Z,41.03
2022-10-06T13:44:18.384Z,39.97
2022-10-06T13:46:54.639Z,41.13
2022-10-06T13:49:31.260Z,40.83
2022-10-06T13:52:02.924Z,40.43
2022-10-06T13:54:53.777Z,40.71
2022-10-06T13:57:37.859Z,40.01
2022-10-06T14:00:16.136Z,40.24
2022-10-06T14:02:45.332Z,40.55
2022-10-06T14:05:39.059Z,40.66
2022-10-06T14:08:11.753Z,40.80
2022-10-06T14:11:01.106Z,41.13
2022-10-06T14:13:29.526Z,41.16
2022-10-06T14:16:02.872Z,41.37
2022-10-06T14:18:40.195Z,41.16
2022-10-06T14:21:29.724Z,41.69
2022-10-06T14:23:56.800Z,41.48
2022-10-06T14:26:27.450Z,41.56
2022-10-06T14:28:54.712Z,41.50
2022-10-06T14:31:23.902Z,41.77
2022-10-06T14:33:54.424Z,41.61
2022-10-06T14:36:29.218Z,41.45
2022-10-06T14:38:57.645Z,41.34
2022-10-06T14:41:27.821Z,41.23
2022-10-06T14:44:03.685Z,41.58
2022-10-06T14:46:30.503Z,41.75
2022-10-06T14:48:57.950Z,42.40
2022-10-06T14:51:26.495Z,42.14
2022-10-06T14:53:58.334Z,42.14
2022-10-06T14:56:31.592Z,42.33
2022-10-06T14:59:05.477Z,42.27
2022-10-06T15:01:34.597Z,42.19
2022-10-06T15:04:11.287Z,42.88
2022-10-06T15:06:57.056Z,43.23
2022-10-06T15:09:23.963Z,43.25
2022-10-06T15:11:51.871Z,43.50
2022-10-06T15:14:18.680Z,43.04
2022-10-06T15:16:45.403Z,43.04
2022-10-06T15:19:13.102Z,43.05
2022-10-06T15:21:46.493Z,43.91
2022-10-06T15:24:18.630Z,44.25
2022-10-06T15:27:04.107Z,44.43
2022-10-06T15:29:31.370Z,44.67
2022-10-06T15:32:00.221Z,44.88
2022-10-06T15:34:29.281Z,44.68
2022-10-06T15:36:57.756Z,44.84
2022-10-06T15:39:27.144Z,45.35
2022-10-06T15:41:54.263Z,45.48
2022-10-06T15:44:21.647Z,45.93
2022-10-06T15:46:51.180Z,46.19
2022-10-06T15:49:32.994Z,46.62
2022-10-06T15:52:02.949Z,46.98
2022-10-06T15:54:37.619Z,47.69
2022-10-06T15:57:08.453Z,48.16
2022-10-06T15:59:35.729Z,48.64
2022-10-06T16:02:09.757Z,49.56
2022-10-06T16:04:38.651Z,49.67
2022-10-06T16:07:09.547Z,49.93
2022-10-06T16:09:43.299Z,51.28
2022-10-06T16:12:13.989Z,52.31
2022-10-06T16:14:40.946Z,52.66
2022-10-06T16:17:09.527Z,52.65
2022-10-06T16:19:40.323Z,53.78
2022-10-06T16:22:09.793Z,53.68
2022-10-06T16:24:36.458Z,53.73
2022-10-06T16:27:03.760Z,54.02
2022-10-06T16:29:30.628Z,54.20
2022-10-06T16:31:57.881Z,53.84
2022-10-06T16:34:25.615Z,54.63
2022-10-06T16:36:52.298Z,55.08
2022-10-06T16:39:23.431Z,55.68
2022-10-06T16:41:51.142Z,55.57
2022-10-06T16:44:18.972Z,55.59
2022-10-06T16:46:45.917Z,55.90
2022-10-06T16:49:12.797Z,56.10
2022-10-06T16:51:42.698Z,56.28
2022-10-06T16:54:12.219Z,56.21
2022-10-06T16:56:47.755Z,56.62
2022-10-06T16:59:22.554Z,57.40
2022-10-06T17:01:50.267Z,58.00
2022-10-06T17:04:19.769Z,58.68
2022-10-06T17:06:48.532Z,60.50
2022-10-06T17:09:17.653Z,59.86
2022-10-06T17:11:56.344Z,60.33
2022-10-06T17:14:23.148Z,60.94
2022-10-06T17:16:52.173Z,61.50
2022-10-06T17:19:20.656Z,61.84
2022-10-06T17:21:51.565Z,62.00
2022-10-06T17:24:22.609Z,62.03
2022-10-06T17:26:49.708Z,61.87
2022-10-06T17:29:23.764Z,61.32
2022-10-06T17:31:59.042Z,61.42
2022-10-06T17:34:31.938Z,61.69
2022-10-06T17:37:00.858Z,61.76
2022-10-06T17:39:27.586Z,62.64
2022-10-06T17:41:54.509Z,63.23
2022-10-06T17:44:26.351Z,63.58
2022-10-06T17:47:02.132Z,63.50
2022-10-06T17:49:32.727Z,63.49
2022-10-06T17:51:59.383Z,64.17
2022-10-06T17:54:27.167Z,64.64
2022-10-06T17:56:56.110Z,65.52
2022-10-06T17:59:31.673Z,65.57
2022-10-06T18:02:02.613Z,66.15
2022-10-06T18:04:29.720Z,65.93
2022-10-06T18:06:57.437Z,65.51
2022-10-06T18:09:24.445Z,65.61
2022-10-06T18:11:56.329Z,65.56
2022-10-06T18:14:26.080Z,65.84
2022-10-06T18:16:56.778Z,66.13
2022-10-06T18:19:26.612Z,67.16
2022-10-06T18:21:56.622Z,67.97
2022-10-06T18:24:26.263Z,68.25
2022-10-06T18:26:55.279Z,68.36
2022-10-06T18:29:25.809Z,68.45
2022-10-06T18:31:53.742Z,68.93
2022-10-06T18:37:10.282Z,68.89
2022-10-06T18:39:36.956Z,69.02
2022-10-06T18:42:05.344Z,69.38
2022-10-06T18:44:50.916Z,69.75
2022-10-06T18:47:36.971Z,69.98
2022-10-06T18:50:04.073Z,70.04
2022-10-06T18:52:30.752Z,70.36
2022-10-06T18:54:57.438Z,70.27
2022-10-06T18:57:27.656Z,71.19
2022-10-06T18:59:55.196Z,71.13
2022-10-06T19:02:22.099Z,71.44
2022-10-06T19:04:48.865Z,71.26
2022-10-06T19:07:15.599Z,71.40
2022-10-06T19:09:46.613Z,71.48
2022-10-06T19:12:14.029Z,70.82
2022-10-06T19:14:47.222Z,71.10
2022-10-06T19:17:15.726Z,71.19
2022-10-06T19:19:54.901Z,71.28
2022-10-06T19:22:24.742Z,71.46
2022-10-06T19:24:52.359Z,71.54
2022-10-06T19:27:24.274Z,71.82
2022-10-06T19:29:56.737Z,71.75
2022-10-06T19:32:32.344Z,72.04
2022-10-06T19:34:59.434Z,72.64
2022-10-06T19:37:28.206Z,72.48
2022-10-06T19:39:55.417Z,72.42
2022-10-06T19:42:41.018Z,72.94
2022-10-06T19:45:09.629Z,73.20
2022-10-06T19:47:36.450Z,73.07
2022-10-06T19:50:10.450Z,72.81
2022-10-06T19:52:38.372Z,73.33
2022-10-06T19:55:05.393Z,73.41
2022-10-06T19:57:33.773Z,73.75
2022-10-06T20:00:00.913Z,74.02
2022-10-06T20:02:28.941Z,74.47
2022-10-06T20:04:56.357Z,74.57
2022-10-06T20:07:27.335Z,74.83
2022-10-06T20:09:55.694Z,74.84
2022-10-06T20:12:25.226Z,74.92
2022-10-06T20:14:53.680Z,75.58
2022-10-06T20:17:21.289Z,76.32
2022-10-06T20:19:48.232Z,76.15
2022-10-06T20:22:14.952Z,75.99
2022-10-06T20:24:44.395Z,75.72
2022-10-06T20:27:11.129Z,75.62
2022-10-06T20:29:37.855Z,75.21
2022-10-06T20:32:05.339Z,75.00
2022-10-06T20:34:32.592Z,75.04
2022-10-06T20:37:02.003Z,75.50
2022-10-06T20:39:49.390Z,76.36
2022-10-06T20:42:16.857Z,76.57
2022-10-06T20:44:43.792Z,76.59
2022-10-06T20:47:12.261Z,76.70
2022-10-06T20:49:38.912Z,75.80
2022-10-06T20:52:05.899Z,75.95
2022-10-06T20:54:35.058Z,76.67
2022-10-06T20:57:05.001Z,76.74
2022-10-06T20:59:35.379Z,76.55
2022-10-06T21:02:03.376Z,77.08
2022-10-06T21:04:30.406Z,77.01
2022-10-06T21:06:57.355Z,77.79
2022-10-06T21:09:24.718Z,78.22
2022-10-06T21:11:52.098Z,77.69
2022-10-06T21:14:18.957Z,77.32
2022-10-06T21:16:47.784Z,76.50
2022-10-06T21:19:17.246Z,76.61
2022-10-06T21:21:46.016Z,76.83
2022-10-06T21:24:13.030Z,77.91
2022-10-06T21:26:42.714Z,79.43
2022-10-06T21:29:14.174Z,80.86
2022-10-06T21:31:41.812Z,80.94
2022-10-06T21:34:08.710Z,81.02
2022-10-06T21:36:35.464Z,80.88
2022-10-06T21:39:04.662Z,80.74
2022-10-06T21:41:40.443Z,80.38
2022-10-06T21:44:18.990Z,80.39
2022-10-06T21:46:48.035Z,80.20
2022-10-06T21:49:20.387Z,80.49
2022-10-06T21:51:49.792Z,81.25
2022-10-06T21:54:16.801Z,81.15
2022-10-06T21:56:43.780Z,81.53
2022-10-06T21:59:11.418Z,82.00
2022-10-06T22:01:43.432Z,82.28
2022-10-06T22:04:12.729Z,82.59
2022-10-06T22:06:39.617Z,82.27
2022-10-06T22:09:08.582Z,82.34
2022-10-06T22:11:37.766Z,82.43
2022-10-06T22:14:07.114Z,82.71
2022-10-06T22:16:35.484Z,82.68
2022-10-06T22:19:06.276Z,82.98
2022-10-06T22:21:35.515Z,83.54
2022-10-06T22:24:11.348Z,84.02
2022-10-06T22:26:40.423Z,84.27
2022-10-06T22:29:09.190Z,84.65
2022-10-06T22:31:38.774Z,84.76
2022-10-06T22:34:06.250Z,84.58
2022-10-06T22:36:34.066Z,84.79
2022-10-06T22:39:01.454Z,84.69
2022-10-06T22:41:28.680Z,84.75
2022-10-06T22:43:59.612Z,84.98
2022-10-06T22:46:28.299Z,85.07
2022-10-06T22:48:55.378Z,84.70
2022-10-06T22:51:22.317Z,84.27
2022-10-06T22:53:57.914Z,84.00
2022-10-06T22:56:28.178Z,84.13
2022-10-06T22:58:55.500Z,84.06
2022-10-06T23:01:22.543Z,84.03
2022-10-06T23:03:49.294Z,83.93
2022-10-06T23:06:17.580Z,83.81
2022-10-06T23:08:44.696Z,83.84
2022-10-06T23:11:17.678Z,83.88
2022-10-06T23:13:45.386Z,83.90
2022-10-06T23:16:16.843Z,83.87
2022-10-06T23:18:44.846Z,83.62
2022-10-06T23:21:24.154Z,83.41
2022-10-06T23:23:53.171Z,83.66
2022-10-06T23:26:21.473Z,83.74
2022-10-06T23:29:00.255Z,83.79
2022-10-06T23:31:28.331Z,83.82
2022-10-06T23:33:55.590Z,83.91
2022-10-06T23:36:22.356Z,83.80
2022-10-06T23:38:49.148Z,83.29
2022-10-06T23:41:16.078Z,83.42
2022-10-06T23:43:43.093Z,84.08
2022-10-06T23:46:09.791Z,84.17
2022-10-06T23:48:36.578Z,84.28
2022-10-06T23:51:05.230Z,84.32
2022-10-06T23:53:32.447Z,84.29
2022-10-06T23:55:59.345Z,83.99
2022-10-06T23:58:27.301Z,83.66
